Time;durP1;ratioP1;P1;durP2;ratioP2;P2;SDS_P1;SDS_P2;PMS_P1;PMS_P2;Temp;Humidity;BMP_temperature;BMP_pressure;BME280_temperature;BME280_humidity;BME280_pressure;Samples;Min_cycle;Max_cycle;Signal;HPM_P1;HPM_P2
2024/02/16 00:00:18;;;;;;;;;;;;;;;;;;2201629;59;1376;-19
2024/02/16 00:02:48;;;;;;;;;;;;;;;;;;2201967;67;1063;-19
2024/02/16 00:05:20;;;;;;;;;;;;;;;;;;2201625;67;1930;-19
2024/02/16 00:07:51;;;;;;;;;;;;;;;;;;2201955;67;1501;-19
2024/02/16 00:10:21;;;;;;;;;;;;;;;;;;2200158;67;1637;-19
2024/02/16 00:12:52;;;;;;;;;;;;;;;;;;2201770;59;1780;-19
2024/02/16 00:15:23;;;;;;;;;;;;;;;;;;2202215;59;1335;-19
2024/02/16 00:17:54;;;;;;;;;;;;;;;;;;2202101;67;1217;-19
2024/02/16 00:20:25;;;;;;;;;;;;;;;;;;2202244;67;1295;-19
2024/02/16 00:23:02;;;;;;;;;;;;;;;;;;2201819;59;1510;-19
2024/02/16 00:25:32;;;;;;;;;;;;;;;;;;2201750;67;2033;-19
2024/02/16 00:28:03;;;;;;;;;;;;;;;;;;2201158;67;1236;-19
2024/02/16 00:30:33;;;;;;;;;;;;;;;;;;2202671;67;1238;-19
2024/02/16 00:33:04;;;;;;;;;;;;;;;;;;2200421;59;2103;-19
2024/02/16 00:35:34;;;;;;;;;;;;;;;;;;2201975;59;1622;-19
2024/02/16 00:38:04;;;;;;;;;;;;;;;;;;2201921;59;1291;-19
2024/02/16 00:40:35;;;;;;;;;;;;;;;;;;2202686;59;1322;-19
2024/02/16 00:43:06;;;;;;;;;;;;;;;;;;2200984;67;1149;-19
2024/02/16 00:45:38;;;;;;;;;;;;;;;;;;2201732;67;1912;-19
2024/02/16 00:48:08;;;;;;;;;;;;;;;;;;2200861;59;1423;-19
2024/02/16 00:50:39;;;;;;;;;;;;;;;;;;2201520;59;1614;-19
2024/02/16 00:53:09;;;;;;;;;;;;;;;;;;2201418;67;1308;-19
2024/02/16 00:55:41;;;;;;;;;;;;;;;;;;2200593;59;1394;-19
2024/02/16 00:58:11;;;;;;;;;;;;;;;;;;2201770;59;1356;-19
2024/02/16 01:00:44;;;;;;;;;;;;;;;;;;2199882;59;1409;-19
2024/02/16 01:03:15;;;;;;;;;;;;;;;;;;2201601;67;1229;-19
2024/02/16 01:05:45;;;;;;;;;;;;;;;;;;2201591;67;2009;-19
2024/02/16 01:08:16;;;;;;;;;;;;;;;;;;2202619;67;1210;-19
2024/02/16 01:10:47;;;;;;;;;;;;;;;;;;2202332;67;1200;-19
2024/02/16 01:13:18;;;;;;;;;;;;;;;;;;2202614;59;1353;-19
2024/02/16 01:15:48;;;;;;;;;;;;;;;;;;2198447;59;1198;-19
2024/02/16 01:18:19;;;;;;;;;;;;;;;;;;2202704;67;1211;-19
2024/02/16 01:20:49;;;;;;;;;;;;;;;;;;2201685;67;1159;-19
2024/02/16 01:23:21;;;;;;;;;;;;;;;;;;2202050;59;1556;-19
2024/02/16 01:25:55;;;;;;;;;;;;;;;;;;2201934;67;1945;-19
2024/02/16 01:28:25;;;;;;;;;;;;;;;;;;2202449;67;1326;-19
2024/02/16 01:30:58;;;;;;;;;;;;;;;;;;2201621;67;1413;-19
2024/02/16 01:33:34;;;;;;;;;;;;;;;;;;2202579;59;1447;-19
2024/02/16 01:36:05;;;;;;;;;;;;;;;;;;2201638;59;1694;-19
2024/02/16 01:38:36;;;;;;;;;;;;;;;;;;2200393;67;1631;-19
2024/02/16 01:41:08;;;;;;;;;;;;;;;;;;2201740;59;1323;-19
2024/02/16 01:43:41;;;;;;;;;;;;;;;;;;2201991;59;1514;-19
2024/02/16 01:46:11;;;;;;;;;;;;;;;;;;2201595;59;2000;-19
2024/02/16 01:48:43;;;;;;;;;;;;;;;;;;2199214;67;1298;-19
2024/02/16 01:51:15;;;;;;;;;;;;;;;;;;2202562;59;1672;-19
2024/02/16 01:53:48;;;;;;;;;;;;;;;;;;2202398;67;2112;-18
2024/02/16 01:56:20;;;;;;;;;;;;;;;;;;2200048;59;1499;-19
2024/02/16 01:58:51;;;;;;;;;;;;;;;;;;2201805;67;1263;-19
2024/02/16 02:01:22;;;;;;;;;;;;;;;;;;2202854;59;1230;-19
2024/02/16 02:03:53;;;;;;;;;;;;;;;;;;2202146;67;2256;-19
2024/02/16 02:06:23;;;;;;;;;;;;;;;;;;2201717;67;1415;-19
2024/02/16 02:08:54;;;;;;;;;;;;;;;;;;2201187;67;1709;-19
2024/02/16 02:11:24;;;;;;;;;;;;;;;;;;2203170;67;1179;-19
2024/02/16 02:14:04;;;;;;;;;;;;;;;;;;2201517;59;1314;-19
2024/02/16 02:16:37;;;;;;;;;;;;;;;;;;2202180;67;1278;-19
2024/02/16 02:19:07;;;;;;;;;;;;;;;;;;2201370;67;1286;-19
2024/02/16 02:21:38;;;;;;;;;;;;;;;;;;2202491;67;1456;-19
2024/02/16 02:24:09;;;;;;;;;;;;;;;;;;2201627;59;1936;-19
2024/02/16 02:26:39;;;;;;;;;;;;;;;;;;2202115;67;1167;-19
2024/02/16 02:29:10;;;;;;;;;;;;;;;;;;2201933;67;1650;-19
2024/02/16 02:31:40;;;;;;;;;;;;;;;;;;2202937;67;1308;-19
2024/02/16 02:34:14;;;;;;;;;;;;;;;;;;2202091;59;2006;-19
2024/02/16 02:36:47;;;;;;;;;;;;;;;;;;2202808;59;1297;-19
2024/02/16 02:39:17;;;;;;;;;;;;;;;;;;2202984;59;1298;-19
2024/02/16 02:41:48;;;;;;;;;;;;;;;;;;2202515;59;1413;-19
2024/02/16 02:44:21;;;;;;;;;;;;;;;;;;2202158;59;1930;-19
2024/02/16 02:46:52;;;;;;;;;;;;;;;;;;2201631;67;1319;-19
2024/02/16 02:49:23;;;;;;;;;;;;;;;;;;2199281;59;1783;-19
2024/02/16 02:51:54;;;;;;;;;;;;;;;;;;2200754;59;1782;-19
2024/02/16 02:54:27;;;;;;;;;;;;;;;;;;2202113;67;1148;-19
2024/02/16 02:56:58;;;;;;;;;;;;;;;;;;2201647;59;1482;-19
2024/02/16 02:59:28;;;;;;;;;;;;;;;;;;2202620;67;2216;-19
2024/02/16 03:01:58;;;;;;;;;;;;;;;;;;2201142;67;1301;-19
2024/02/16 03:04:29;;;;;;;;;;;;;;;;;;2202175;67;1932;-19
2024/02/16 03:06:59;;;;;;;;;;;;;;;;;;2201412;67;1164;-19
2024/02/16 03:09:30;;;;;;;;;;;;;;;;;;2202102;67;1693;-19
2024/02/16 03:12:01;;;;;;;;;;;;;;;;;;2201423;67;1204;-19
2024/02/16 03:14:33;;;;;;;;;;;;;;;;;;2201373;59;1504;-19
2024/02/16 03:17:04;;;;;;;;;;;;;;;;;;2201774;67;1513;-19
2024/02/16 03:19:34;;;;;;;;;;;;;;;;;;2202134;67;1315;-19
2024/02/16 03:22:05;;;;;;;;;;;;;;;;;;2202424;59;1722;-19
2024/02/16 03:24:45;;;;;;;;;;;;;;;;;;2201504;67;2007;-18
2024/02/16 03:27:15;;;;;;;;;;;;;;;;;;2201745;67;1628;-19
2024/02/16 03:29:45;;;;;;;;;;;;;;;;;;2202069;67;1353;-19
2024/02/16 03:32:17;;;;;;;;;;;;;;;;;;2201258;67;1483;-19
2024/02/16 03:34:47;;;;;;;;;;;;;;;;;;2202395;59;1567;-19
2024/02/16 03:37:17;;;;;;;;;;;;;;;;;;2201421;59;1770;-19
2024/02/16 03:39:48;;;;;;;;;;;;;;;;;;2204877;59;1271;-19
2024/02/16 03:42:19;;;;;;;;;;;;;;;;;;2202298;59;1318;-19
2024/02/16 03:44:50;;;;;;;;;;;;;;;;;;2202559;59;1947;-19
2024/02/16 03:47:21;;;;;;;;;;;;;;;;;;2202104;59;2064;-19
2024/02/16 03:49:51;;;;;;;;;;;;;;;;;;2202746;59;1472;-19
2024/02/16 03:52:22;;;;;;;;;;;;;;;;;;2201000;59;1573;-18
2024/02/16 03:54:52;;;;;;;;;;;;;;;;;;2201244;59;2058;-19
2024/02/16 03:57:26;;;;;;;;;;;;;;;;;;2201355;59;1579;-19
2024/02/16 03:59:57;;;;;;;;;;;;;;;;;;2201360;67;1150;-18
2024/02/16 04:02:30;;;;;;;;;;;;;;;;;;2202611;67;1229;-19
2024/02/16 04:05:01;;;;;;;;;;;;;;;;;;2201947;67;1996;-19
2024/02/16 04:07:31;;;;;;;;;;;;;;;;;;2202871;59;1496;-22
2024/02/16 04:10:01;;;;;;;;;;;;;;;;;;2201809;67;1329;-19
2024/02/16 04:12:32;;;;;;;;;;;;;;;;;;2202206;67;1725;-19
2024/02/16 04:15:06;;;;;;;;;;;;;;;;;;2201524;60;1331;-19
2024/02/16 04:17:37;;;;;;;;;;;;;;;;;;2201151;67;1330;-19
2024/02/16 04:20:08;;;;;;;;;;;;;;;;;;2201282;67;1401;-19
2024/02/16 04:22:40;;;;;;;;;;;;;;;;;;2202781;67;1388;-19
2024/02/16 04:25:11;;;;;;;;;;;;;;;;;;2201804;67;1925;-18
2024/02/16 04:27:45;;;;;;;;;;;;;;;;;;2202122;67;1274;-19
2024/02/16 04:30:16;;;;;;;;;;;;;;;;;;2200869;67;1763;-19
2024/02/16 04:32:48;;;;;;;;;;;;;;;;;;2201108;59;1864;-19
2024/02/16 04:35:19;;;;;;;;;;;;;;;;;;2201374;67;1284;-19
2024/02/16 04:37:49;;;;;;;;;;;;;;;;;;2198002;59;1189;-19
2024/02/16 04:40:19;;;;;;;;;;;;;;;;;;2202644;59;2109;-17
2024/02/16 04:42:53;;;;;;;;;;;;;;;;;;2202447;59;1411;-16
2024/02/16 04:45:24;;;;;;;;;;;;;;;;;;2201671;59;1978;-17
2024/02/16 04:47:55;;;;;;;;;;;;;;;;;;2202950;59;1457;-16
2024/02/16 04:50:25;;;;;;;;;;;;;;;;;;2202738;59;1504;-17
2024/02/16 04:52:56;;;;;;;;;;;;;;;;;;2202195;59;1390;-17
2024/02/16 04:55:30;;;;;;;;;;;;;;;;;;2202729;59;1484;-17
2024/02/16 04:58:09;;;;;;;;;;;;;;;;;;2202858;59;1660;-16
2024/02/16 05:00:39;;;;;;;;;;;;;;;;;;2203276;59;1407;-17
2024/02/16 05:03:09;;;;;;;;;;;;;;;;;;2202397;67;1161;-17
2024/02/16 05:05:40;;;;;;;;;;;;;;;;;;2203024;67;2082;-16
2024/02/16 05:08:11;;;;;;;;;;;;;;;;;;2202563;67;1555;-17
2024/02/16 05:10:42;;;;;;;;;;;;;;;;;;2202941;67;1225;-16
2024/02/16 05:13:14;;;;;;;;;;;;;;;;;;2202142;59;1227;-17
2024/02/16 05:15:44;;;;;;;;;;;;;;;;;;2203073;59;1225;-16
2024/02/16 05:18:15;;;;;;;;;;;;;;;;;;2202511;67;1434;-16
2024/02/16 05:20:47;;;;;;;;;;;;;;;;;;2203125;67;1293;-17
2024/02/16 05:23:18;;;;;;;;;;;;;;;;;;2202109;59;1616;-16
2024/02/16 05:25:48;;;;;;;;;;;;;;;;;;2202857;67;1952;-17
2024/02/16 05:28:18;;;;;;;;;;;;;;;;;;2202043;67;1349;-16
2024/02/16 05:30:49;;;;;;;;;;;;;;;;;;2202724;67;1590;-16
2024/02/16 05:33:22;;;;;;;;;;;;;;;;;;2202348;59;2077;-16
2024/02/16 05:35:55;;;;;;;;;;;;;;;;;;2202969;59;1278;-16
2024/02/16 05:38:40;;;;;;;;;;;;;;;;;;2202174;59;1194;-17
2024/02/16 05:41:11;;;;;;;;;;;;;;;;;;2202575;59;2507;-16
2024/02/16 05:43:45;;;;;;;;;;;;;;;;;;2202702;59;1747;-17
2024/02/16 05:46:16;;;;;;;;;;;;;;;;;;2202844;59;1938;-16
2024/02/16 05:48:46;;;;;;;;;;;;;;;;;;2203061;59;2201;-16
2024/02/16 05:51:16;;;;;;;;;;;;;;;;;;2202346;59;1643;-17
2024/02/16 05:53:47;;;;;;;;;;;;;;;;;;2203012;59;1951;-16
2024/02/16 05:56:17;;;;;;;;;;;;;;;;;;2202141;59;1374;-16
2024/02/16 05:58:50;;;;;;;;;;;;;;;;;;2203837;59;1710;-16
2024/02/16 06:01:21;;;;;;;;;;;;;;;;;;2202732;67;1476;-17
2024/02/16 06:03:51;;;;;;;;;;;;;;;;;;2205732;67;1317;-16
2024/02/16 06:06:23;;;;;;;;;;;;;;;;;;2201636;59;2233;-17
2024/02/16 06:08:53;;;;;;;;;;;;;;;;;;2203610;59;2127;-16
2024/02/16 06:11:23;;;;;;;;;;;;;;;;;;2202905;59;1488;-17
2024/02/16 06:13:53;;;;;;;;;;;;;;;;;;2203020;59;1522;-16
2024/02/16 06:16:24;;;;;;;;;;;;;;;;;;2201033;59;1506;-16
2024/02/16 06:18:54;;;;;;;;;;;;;;;;;;2203033;67;1632;-17
2024/02/16 06:21:24;;;;;;;;;;;;;;;;;;2202342;67;1544;-17
2024/02/16 06:23:55;;;;;;;;;;;;;;;;;;2202406;59;1553;-16
2024/02/16 06:26:25;;;;;;;;;;;;;;;;;;2202059;59;1942;-16
2024/02/16 06:28:55;;;;;;;;;;;;;;;;;;2203135;67;1243;-16
2024/02/16 06:31:26;;;;;;;;;;;;;;;;;;2201903;59;2184;-16
2024/02/16 06:33:56;;;;;;;;;;;;;;;;;;2203088;59;1790;-16
2024/02/16 06:36:28;;;;;;;;;;;;;;;;;;2201914;59;1215;-16
2024/02/16 06:38:58;;;;;;;;;;;;;;;;;;2203371;59;1264;-16
2024/02/16 06:41:28;;;;;;;;;;;;;;;;;;2201428;59;1462;-16
2024/02/16 06:44:00;;;;;;;;;;;;;;;;;;2202040;67;1214;-17
2024/02/16 06:46:30;;;;;;;;;;;;;;;;;;2202157;59;1940;-16
2024/02/16 06:49:00;;;;;;;;;;;;;;;;;;2201910;59;2021;-16
2024/02/16 06:51:32;;;;;;;;;;;;;;;;;;2203003;59;1610;-16
2024/02/16 06:54:05;;;;;;;;;;;;;;;;;;2203816;59;1543;-16
2024/02/16 06:56:37;;;;;;;;;;;;;;;;;;2202947;59;1370;-16
2024/02/16 06:59:08;;;;;;;;;;;;;;;;;;2200519;67;2669;-16
2024/02/16 07:01:38;;;;;;;;;;;;;;;;;;2203252;67;1167;-16
2024/02/16 07:04:09;;;;;;;;;;;;;;;;;;2202315;67;1936;-17
2024/02/16 07:06:39;;;;;;;;;;;;;;;;;;2201931;59;1295;-17
2024/02/16 07:09:17;;;;;;;;;;;;;;;;;;2202325;67;1628;-16
2024/02/16 07:11:50;;;;;;;;;;;;;;;;;;2202727;67;1222;-17
2024/02/16 07:14:21;;;;;;;;;;;;;;;;;;2200045;59;2487;-16
2024/02/16 07:16:51;;;;;;;;;;;;;;;;;;2202140;59;1418;-17
2024/02/16 07:19:21;;;;;;;;;;;;;;;;;;2202349;59;3709;-16
2024/02/16 07:21:52;;;;;;;;;;;;;;;;;;2202348;59;2355;-17
2024/02/16 07:24:27;;;;;;;;;;;;;;;;;;2201211;59;2223;-16
2024/02/16 07:26:57;;;;;;;;;;;;;;;;;;2200819;59;2222;-17
2024/02/16 07:29:28;;;;;;;;;;;;;;;;;;2199663;59;2643;-16
2024/02/16 07:32:01;;;;;;;;;;;;;;;;;;2201640;59;2579;-16
2024/02/16 07:34:33;;;;;;;;;;;;;;;;;;2201637;67;1924;-17
2024/02/16 07:37:03;;;;;;;;;;;;;;;;;;2201528;59;2525;-16
2024/02/16 07:39:37;;;;;;;;;;;;;;;;;;2204512;59;1533;-16
2024/02/16 07:42:09;;;;;;;;;;;;;;;;;;2200737;59;2620;-17
2024/02/16 07:44:40;;;;;;;;;;;;;;;;;;2202294;59;2249;-17
2024/02/16 07:47:10;;;;;;;;;;;;;;;;;;2201455;59;2514;-16
2024/02/16 07:49:42;;;;;;;;;;;;;;;;;;2202055;59;2225;-17
2024/02/16 07:52:13;;;;;;;;;;;;;;;;;;2200983;59;2128;-16
2024/02/16 07:54:43;;;;;;;;;;;;;;;;;;2201488;59;2721;-17
2024/02/16 07:57:14;;;;;;;;;;;;;;;;;;2201177;59;2175;-17
2024/02/16 07:59:46;;;;;;;;;;;;;;;;;;2202799;59;2571;-17
2024/02/16 08:02:17;;;;;;;;;;;;;;;;;;2201314;59;2385;-17
2024/02/16 08:04:48;;;;;;;;;;;;;;;;;;2201414;60;2346;-17
2024/02/16 08:07:19;;;;;;;;;;;;;;;;;;2201164;59;2001;-17
2024/02/16 08:09:49;;;;;;;;;;;;;;;;;;2201532;67;2155;-17
2024/02/16 08:12:19;;;;;;;;;;;;;;;;;;2200512;59;2763;-17
2024/02/16 08:14:49;;;;;;;;;;;;;;;;;;2201688;59;2065;-17
2024/02/16 08:17:20;;;;;;;;;;;;;;;;;;2202176;59;3070;-17
2024/02/16 08:19:53;;;;;;;;;;;;;;;;;;2203870;59;2318;-17
2024/02/16 08:22:24;;;;;;;;;;;;;;;;;;2201655;59;2427;-17
2024/02/16 08:24:54;;;;;;;;;;;;;;;;;;2204563;59;1962;-17
2024/02/16 08:27:25;;;;;;;;;;;;;;;;;;2202171;59;2505;-17
2024/02/16 08:29:55;;;;;;;;;;;;;;;;;;2202191;67;2331;-17
2024/02/16 08:32:25;;;;;;;;;;;;;;;;;;2201547;67;2333;-17
2024/02/16 08:34:58;;;;;;;;;;;;;;;;;;2202947;59;1560;-17
2024/02/16 08:37:29;;;;;;;;;;;;;;;;;;2200656;59;2635;-17
2024/02/16 08:40:00;;;;;;;;;;;;;;;;;;2201842;59;2403;-17
2024/02/16 08:42:31;;;;;;;;;;;;;;;;;;2201265;59;2617;-18
2024/02/16 08:45:03;;;;;;;;;;;;;;;;;;2203175;59;2288;-17
2024/02/16 08:47:34;;;;;;;;;;;;;;;;;;2201184;59;2134;-17
2024/02/16 08:50:06;;;;;;;;;;;;;;;;;;2198773;59;2629;-17
2024/02/16 08:52:37;;;;;;;;;;;;;;;;;;2200265;59;2298;-17
2024/02/16 08:55:07;;;;;;;;;;;;;;;;;;2201976;59;2208;-17
2024/02/16 08:57:38;;;;;;;;;;;;;;;;;;2200530;59;2242;-17
2024/02/16 09:00:09;;;;;;;;;;;;;;;;;;2202789;59;2089;-17
2024/02/16 09:02:41;;;;;;;;;;;;;;;;;;2202531;59;2011;-17
2024/02/16 09:05:11;;;;;;;;;;;;;;;;;;2200920;67;2433;-20
2024/02/16 09:07:44;;;;;;;;;;;;;;;;;;2201831;67;1365;-19
2024/02/16 09:10:18;;;;;;;;;;;;;;;;;;2201200;67;1440;-19
2024/02/16 09:12:48;;;;;;;;;;;;;;;;;;2201029;60;2717;-20
2024/02/16 09:15:19;;;;;;;;;;;;;;;;;;2200083;59;1520;-19
2024/02/16 09:17:49;;;;;;;;;;;;;;;;;;2202385;59;1595;-20
2024/02/16 09:20:22;;;;;;;;;;;;;;;;;;2201550;67;1860;-19
2024/02/16 09:22:52;;;;;;;;;;;;;;;;;;2202434;59;1460;-20
2024/02/16 09:25:25;;;;;;;;;;;;;;;;;;2200217;67;1976;-19
2024/02/16 09:27:56;;;;;;;;;;;;;;;;;;2201768;67;1571;-19
2024/02/16 09:30:26;;;;;;;;;;;;;;;;;;2201341;59;2517;-19
2024/02/16 09:32:56;;;;;;;;;;;;;;;;;;2197682;59;1617;-19
2024/02/16 09:35:27;;;;;;;;;;;;;;;;;;2201123;67;1572;-19
2024/02/16 09:37:58;;;;;;;;;;;;;;;;;;2202943;59;1527;-20
2024/02/16 09:40:28;;;;;;;;;;;;;;;;;;2201280;67;1726;-19
2024/02/16 09:43:00;;;;;;;;;;;;;;;;;;2203088;59;1794;-19
2024/02/16 09:45:36;;;;;;;;;;;;;;;;;;2201635;59;1937;-19
2024/02/16 09:48:07;;;;;;;;;;;;;;;;;;2202048;59;1454;-19
2024/02/16 09:50:41;;;;;;;;;;;;;;;;;;2201622;59;2033;-19
2024/02/16 09:53:15;;;;;;;;;;;;;;;;;;2201809;59;2353;-19
2024/02/16 09:55:45;;;;;;;;;;;;;;;;;;2200205;59;2638;-19
2024/02/16 09:58:18;;;;;;;;;;;;;;;;;;2199616;67;1572;-20
2024/02/16 10:00:55;;;;;;;;;;;;;;;;;;2201691;59;1654;-19
2024/02/16 10:03:28;;;;;;;;;;;;;;;;;;2201736;67;1641;-19
2024/02/16 10:06:04;;;;;;;;;;;;;;;;;;2202445;67;1936;-19
2024/02/16 10:08:48;;;;;;;;;;;;;;;;;;2201527;67;1903;-19
2024/02/16 10:11:20;;;;;;;;;;;;;;;;;;2200588;67;1561;-19
2024/02/16 10:14:02;;;;;;;;;;;;;;;;;;2202680;59;1667;-19
2024/02/16 10:16:33;;;;;;;;;;;;;;;;;;2200891;67;1638;-19
2024/02/16 10:19:07;;;;;;;;;;;;;;;;;;2202682;59;2167;-19
2024/02/16 10:21:39;;;;;;;;;;;;;;;;;;2201366;67;1735;-19
2024/02/16 10:24:14;;;;;;;;;;;;;;;;;;2202836;59;2321;-19
2024/02/16 10:26:46;;;;;;;;;;;;;;;;;;2200612;59;2145;-19
2024/02/16 10:29:19;;;;;;;;;;;;;;;;;;2202168;67;1475;-20
2024/02/16 10:31:53;;;;;;;;;;;;;;;;;;2201648;59;1714;-19
2024/02/16 10:34:24;;;;;;;;;;;;;;;;;;2200736;59;1856;-19
2024/02/16 10:36:57;;;;;;;;;;;;;;;;;;2202909;59;1841;-19
2024/02/16 10:39:28;;;;;;;;;;;;;;;;;;2201519;59;1551;-19
2024/02/16 10:42:02;;;;;;;;;;;;;;;;;;2202201;59;1673;-19
2024/02/16 10:44:40;;;;;;;;;;;;;;;;;;2201839;67;1933;-19
2024/02/16 10:47:11;;;;;;;;;;;;;;;;;;2199643;59;1692;-19
2024/02/16 10:49:42;;;;;;;;;;;;;;;;;;2201059;59;1431;-19
2024/02/16 10:52:14;;;;;;;;;;;;;;;;;;2201469;59;1594;-19
2024/02/16 10:54:46;;;;;;;;;;;;;;;;;;2201364;67;1364;-20
2024/02/16 10:57:17;;;;;;;;;;;;;;;;;;2201571;59;1532;-19
2024/02/16 10:59:52;;;;;;;;;;;;;;;;;;2200941;67;1484;-19
2024/02/16 11:02:25;;;;;;;;;;;;;;;;;;2200827;67;1786;-19
2024/02/16 11:05:08;;;;;;;;;;;;;;;;;;2202707;53;2145;-23
2024/02/16 11:07:40;;;;;;;;;;;;;;;;;;2200831;59;2771;-23
2024/02/16 11:10:14;;;;;;;;;;;;;;;;;;2202486;59;1988;-23
2024/02/16 11:12:46;;;;;;;;;;;;;;;;;;2197136;59;2053;-23
2024/02/16 11:15:16;;;;;;;;;;;;;;;;;;2200695;59;1872;-24
2024/02/16 11:17:46;;;;;;;;;;;;;;;;;;2198415;59;2104;-24
2024/02/16 11:20:18;;;;;;;;;;;;;;;;;;2198720;59;1531;-24
2024/02/16 11:22:51;;;;;;;;;;;;;;;;;;2198271;59;2698;-24
2024/02/16 11:25:31;;;;;;;;;;;;;;;;;;2197316;59;2385;-24
2024/02/16 11:28:03;;;;;;;;;;;;;;;;;;2200755;59;1833;-24
2024/02/16 11:30:35;;;;;;;;;;;;;;;;;;2197390;60;2643;-24
2024/02/16 11:33:10;;;;;;;;;;;;;;;;;;2197659;59;1769;-24
2024/02/16 11:35:40;;;;;;;;;;;;;;;;;;2197373;59;1873;-24
2024/02/16 11:38:11;;;;;;;;;;;;;;;;;;2197889;59;2176;-24
2024/02/16 11:40:54;;;;;;;;;;;;;;;;;;2196800;59;1939;-24
2024/02/16 11:43:32;;;;;;;;;;;;;;;;;;2197370;67;1724;-24
2024/02/16 11:46:16;;;;;;;;;;;;;;;;;;2199057;59;1991;-24
2024/02/16 11:48:50;;;;;;;;;;;;;;;;;;2196948;59;2123;-24
2024/02/16 11:51:20;;;;;;;;;;;;;;;;;;2198193;59;2103;-24
2024/02/16 11:53:58;;;;;;;;;;;;;;;;;;2198165;59;1938;-24
2024/02/16 11:56:31;;;;;;;;;;;;;;;;;;2198209;59;2508;-24
2024/02/16 11:59:01;;;;;;;;;;;;;;;;;;2201090;67;2626;-24
2024/02/16 12:01:34;;;;;;;;;;;;;;;;;;2199486;59;1812;-24
2024/02/16 12:04:04;;;;;;;;;;;;;;;;;;2197524;59;1812;-24
2024/02/16 12:06:34;;;;;;;;;;;;;;;;;;2199145;67;2315;-24
2024/02/16 12:09:05;;;;;;;;;;;;;;;;;;2197939;59;2178;-24
2024/02/16 12:11:36;;;;;;;;;;;;;;;;;;2197143;59;2086;-24
2024/02/16 12:14:10;;;;;;;;;;;;;;;;;;2197846;59;1830;-24
2024/02/16 12:16:41;;;;;;;;;;;;;;;;;;2197503;67;1741;-25
2024/02/16 12:19:11;;;;;;;;;;;;;;;;;;2197578;59;1581;-25
2024/02/16 12:21:42;;;;;;;;;;;;;;;;;;2197439;59;1787;-25
2024/02/16 12:24:12;;;;;;;;;;;;;;;;;;2198053;59;1993;-25
2024/02/16 12:26:42;;;;;;;;;;;;;;;;;;2197732;60;1937;-24
2024/02/16 12:29:13;;;;;;;;;;;;;;;;;;2200763;67;2691;-24
2024/02/16 12:31:47;;;;;;;;;;;;;;;;;;2197760;67;2709;-25
2024/02/16 12:34:19;;;;;;;;;;;;;;;;;;2197932;59;2767;-25
2024/02/16 12:36:49;;;;;;;;;;;;;;;;;;2197785;59;1557;-25
2024/02/16 12:39:19;;;;;;;;;;;;;;;;;;2198138;59;1966;-25
2024/02/16 12:41:49;;;;;;;;;;;;;;;;;;2199710;59;2403;-25
2024/02/16 12:44:20;;;;;;;;;;;;;;;;;;2199571;67;2006;-25
2024/02/16 12:46:50;;;;;;;;;;;;;;;;;;2196829;59;1710;-25
2024/02/16 12:49:21;;;;;;;;;;;;;;;;;;2198287;59;2980;-25
2024/02/16 12:51:55;;;;;;;;;;;;;;;;;;2196731;59;1739;-25
2024/02/16 12:54:26;;;;;;;;;;;;;;;;;;2197303;59;2801;-25
2024/02/16 12:56:56;;;;;;;;;;;;;;;;;;2198316;59;1797;-25
2024/02/16 12:59:26;;;;;;;;;;;;;;;;;;2199205;60;2029;-25
2024/02/16 13:01:56;;;;;;;;;;;;;;;;;;2197447;59;1782;-25
2024/02/16 13:04:31;;;;;;;;;;;;;;;;;;2198116;59;1990;-25
2024/02/16 13:07:03;;;;;;;;;;;;;;;;;;2198088;67;1523;-24
2024/02/16 13:09:33;;;;;;;;;;;;;;;;;;2197817;67;1381;-24
2024/02/16 13:12:04;;;;;;;;;;;;;;;;;;2198064;59;1419;-25
2024/02/16 13:14:34;;;;;;;;;;;;;;;;;;2198432;59;1422;-24
2024/02/16 13:17:05;;;;;;;;;;;;;;;;;;2197978;67;1575;-24
2024/02/16 13:19:35;;;;;;;;;;;;;;;;;;2197574;67;1304;-24
2024/02/16 13:22:05;;;;;;;;;;;;;;;;;;2201122;67;1933;-24
2024/02/16 13:24:35;;;;;;;;;;;;;;;;;;2197853;67;1929;-24
2024/02/16 13:27:06;;;;;;;;;;;;;;;;;;2198235;59;1271;-24
2024/02/16 13:29:37;;;;;;;;;;;;;;;;;;2195964;67;1289;-24
2024/02/16 13:32:08;;;;;;;;;;;;;;;;;;2198343;67;1826;-24
2024/02/16 13:34:39;;;;;;;;;;;;;;;;;;2198864;59;2056;-24
2024/02/16 13:37:10;;;;;;;;;;;;;;;;;;2198161;59;1647;-24
2024/02/16 13:39:42;;;;;;;;;;;;;;;;;;2197252;59;1463;-24
2024/02/16 13:42:13;;;;;;;;;;;;;;;;;;2200418;59;1393;-24
2024/02/16 13:44:44;;;;;;;;;;;;;;;;;;2195509;67;1940;-26
2024/02/16 13:47:17;;;;;;;;;;;;;;;;;;2199035;59;1350;-25
2024/02/16 13:49:48;;;;;;;;;;;;;;;;;;2197996;59;1489;-25
2024/02/16 13:52:20;;;;;;;;;;;;;;;;;;2197607;59;1717;-24
2024/02/16 13:54:50;;;;;;;;;;;;;;;;;;2197401;59;2055;-25
2024/02/16 13:57:21;;;;;;;;;;;;;;;;;;2197995;59;1784;-24
2024/02/16 13:59:51;;;;;;;;;;;;;;;;;;2198091;59;1295;-25
2024/02/16 14:02:23;;;;;;;;;;;;;;;;;;2197804;67;1447;-24
2024/02/16 14:04:56;;;;;;;;;;;;;;;;;;2197827;59;1927;-24
2024/02/16 14:07:28;;;;;;;;;;;;;;;;;;2197829;67;1196;-24
2024/02/16 14:09:59;;;;;;;;;;;;;;;;;;2197783;59;1473;-25
2024/02/16 14:12:30;;;;;;;;;;;;;;;;;;2197596;59;2198;-24
2024/02/16 14:15:00;;;;;;;;;;;;;;;;;;2198320;59;2331;-24
2024/02/16 14:17:33;;;;;;;;;;;;;;;;;;2197721;59;2561;-26
2024/02/16 14:20:04;;;;;;;;;;;;;;;;;;2197586;67;2499;-25
2024/02/16 14:22:35;;;;;;;;;;;;;;;;;;2195238;59;2350;-24
2024/02/16 14:25:05;;;;;;;;;;;;;;;;;;2198997;59;2775;-24
2024/02/16 14:27:44;;;;;;;;;;;;;;;;;;2197148;59;1901;-24
2024/02/16 14:30:16;;;;;;;;;;;;;;;;;;2197229;59;2182;-24
2024/02/16 14:32:46;;;;;;;;;;;;;;;;;;2195146;59;3349;-24
2024/02/16 14:35:17;;;;;;;;;;;;;;;;;;2199550;59;2253;-24
2024/02/16 14:37:47;;;;;;;;;;;;;;;;;;2197573;59;1308;-24
2024/02/16 14:40:17;;;;;;;;;;;;;;;;;;2200969;67;1630;-24
2024/02/16 14:42:48;;;;;;;;;;;;;;;;;;2198469;59;1605;-24
2024/02/16 14:45:20;;;;;;;;;;;;;;;;;;2198744;67;1988;-24
2024/02/16 14:47:51;;;;;;;;;;;;;;;;;;2198908;59;1374;-24
2024/02/16 14:50:22;;;;;;;;;;;;;;;;;;2199123;59;1682;-24
2024/02/16 14:52:54;;;;;;;;;;;;;;;;;;2197945;67;2118;-24
2024/02/16 14:55:24;;;;;;;;;;;;;;;;;;2198665;59;1492;-24
2024/02/16 14:57:56;;;;;;;;;;;;;;;;;;2197589;59;1318;-24
2024/02/16 15:00:26;;;;;;;;;;;;;;;;;;2198693;59;2018;-24
2024/02/16 15:02:56;;;;;;;;;;;;;;;;;;2198548;67;1286;-24
2024/02/16 15:05:30;;;;;;;;;;;;;;;;;;2198763;59;1940;-24
2024/02/16 15:08:03;;;;;;;;;;;;;;;;;;2197418;67;1263;-24
2024/02/16 15:10:34;;;;;;;;;;;;;;;;;;2197227;67;1924;-24
2024/02/16 15:13:04;;;;;;;;;;;;;;;;;;2198787;59;1262;-24
2024/02/16 15:15:36;;;;;;;;;;;;;;;;;;2201451;59;1437;-24
2024/02/16 15:18:08;;;;;;;;;;;;;;;;;;2198233;59;2077;-24
2024/02/16 15:20:38;;;;;;;;;;;;;;;;;;2197543;59;2208;-24
2024/02/16 15:23:08;;;;;;;;;;;;;;;;;;2198153;59;2131;-24
2024/02/16 15:25:39;;;;;;;;;;;;;;;;;;2200771;67;1937;-24
2024/02/16 15:28:12;;;;;;;;;;;;;;;;;;2198266;59;1923;-24
2024/02/16 15:30:42;;;;;;;;;;;;;;;;;;2198442;59;2285;-24
2024/02/16 15:33:13;;;;;;;;;;;;;;;;;;2198441;59;1394;-24
2024/02/16 15:35:44;;;;;;;;;;;;;;;;;;2199948;59;2179;-24
2024/02/16 15:38:14;;;;;;;;;;;;;;;;;;2197721;59;1963;-24
2024/02/16 15:40:50;;;;;;;;;;;;;;;;;;2197116;59;1498;-24
2024/02/16 15:43:24;;;;;;;;;;;;;;;;;;2197880;67;1649;-24
2024/02/16 15:45:54;;;;;;;;;;;;;;;;;;2196691;67;1937;-24
2024/02/16 15:48:26;;;;;;;;;;;;;;;;;;2200755;59;1612;-24
2024/02/16 15:50:58;;;;;;;;;;;;;;;;;;2198358;67;2306;-24
2024/02/16 15:53:31;;;;;;;;;;;;;;;;;;2198488;67;2144;-24
2024/02/16 15:56:06;;;;;;;;;;;;;;;;;;2198045;59;1524;-24
2024/02/16 15:58:36;;;;;;;;;;;;;;;;;;2197816;67;1082;-24
2024/02/16 16:01:06;;;;;;;;;;;;;;;;;;2198119;59;1885;-24
2024/02/16 16:03:37;;;;;;;;;;;;;;;;;;2197417;67;1326;-24
2024/02/16 16:06:08;;;;;;;;;;;;;;;;;;2197536;67;1940;-24
2024/02/16 16:08:40;;;;;;;;;;;;;;;;;;2197510;67;1337;-26
2024/02/16 16:11:14;;;;;;;;;;;;;;;;;;2198195;67;1162;-26
2024/02/16 16:13:44;;;;;;;;;;;;;;;;;;2198556;60;1381;-24
2024/02/16 16:16:18;;;;;;;;;;;;;;;;;;2198079;67;1735;-24
2024/02/16 16:18:48;;;;;;;;;;;;;;;;;;2198058;67;1310;-24
2024/02/16 16:21:18;;;;;;;;;;;;;;;;;;2200645;67;1686;-24
2024/02/16 16:23:49;;;;;;;;;;;;;;;;;;2198120;59;1731;-26
2024/02/16 16:26:25;;;;;;;;;;;;;;;;;;2198221;67;1999;-24
2024/02/16 16:29:01;;;;;;;;;;;;;;;;;;2197219;59;2081;-24
2024/02/16 16:31:38;;;;;;;;;;;;;;;;;;2198619;67;1470;-24
2024/02/16 16:34:13;;;;;;;;;;;;;;;;;;2196844;59;2053;-24
2024/02/16 16:36:44;;;;;;;;;;;;;;;;;;2198116;59;1610;-24
2024/02/16 16:39:15;;;;;;;;;;;;;;;;;;2199558;59;1806;-24
2024/02/16 16:41:46;;;;;;;;;;;;;;;;;;2198303;59;1486;-24
2024/02/16 16:44:18;;;;;;;;;;;;;;;;;;2199409;67;1329;-24
2024/02/16 16:46:49;;;;;;;;;;;;;;;;;;2198555;59;1939;-24
2024/02/16 16:49:20;;;;;;;;;;;;;;;;;;2200110;59;1277;-24
2024/02/16 16:51:51;;;;;;;;;;;;;;;;;;2201465;59;1428;-24
2024/02/16 16:54:22;;;;;;;;;;;;;;;;;;2199667;59;1587;-24
2024/02/16 16:56:52;;;;;;;;;;;;;;;;;;2198572;60;1478;-24
2024/02/16 16:59:22;;;;;;;;;;;;;;;;;;2199853;67;1424;-24
2024/02/16 17:01:53;;;;;;;;;;;;;;;;;;2198939;59;1273;-24
2024/02/16 17:04:24;;;;;;;;;;;;;;;;;;2198512;59;1711;-24
2024/02/16 17:06:54;;;;;;;;;;;;;;;;;;2198302;67;1917;-24
2024/02/16 17:09:25;;;;;;;;;;;;;;;;;;2203996;54;3805;-20
2024/02/16 17:11:57;;;;;;;;;;;;;;;;;;2204819;59;2667;-20
2024/02/16 17:14:30;;;;;;;;;;;;;;;;;;2205897;59;1829;-20
2024/02/16 17:17:02;;;;;;;;;;;;;;;;;;2204874;59;2420;-20
2024/02/16 17:19:32;;;;;;;;;;;;;;;;;;2205878;59;2056;-20
2024/02/16 17:22:03;;;;;;;;;;;;;;;;;;2204772;59;2465;-20
2024/02/16 17:24:33;;;;;;;;;;;;;;;;;;2205457;67;1972;-20
2024/02/16 17:27:04;;;;;;;;;;;;;;;;;;2204029;59;2139;-20
2024/02/16 17:29:34;;;;;;;;;;;;;;;;;;2204494;59;2657;-20
2024/02/16 17:32:05;;;;;;;;;;;;;;;;;;2205317;67;2272;-20